createdAt,value
2023-04-20T00:00:11.220Z,7.36
2023-04-20T00:02:39.842Z,7.35
2023-04-20T00:05:10.364Z,7.37
2023-04-20T00:07:42.495Z,7.31
2023-04-20T00:10:11.301Z,7.47
2023-04-20T00:12:39.301Z,7.49
2023-04-20T00:15:08.400Z,7.53
2023-04-20T00:17:36.630Z,7.58
2023-04-20T00:20:05.271Z,7.54
2023-04-20T00:22:34.213Z,7.72
2023-04-20T00:25:03.537Z,7.67
2023-04-20T00:27:31.359Z,7.63
2023-04-20T00:30:01.637Z,7.67
2023-04-20T00:32:30.597Z,7.66
2023-04-20T00:34:58.841Z,7.59
2023-04-20T00:37:26.995Z,7.59
2023-04-20T00:39:55.195Z,7.77
2023-04-20T00:42:24.515Z,7.89
2023-04-20T00:44:52.670Z,8.00
2023-04-20T00:47:20.982Z,8.11
2023-04-20T00:49:49.225Z,8.14
2023-04-20T00:52:17.613Z,8.23
2023-04-20T00:54:45.672Z,8.23
2023-04-20T00:57:15.513Z,8.22
2023-04-20T00:59:45.057Z,8.22
2023-04-20T01:02:13.117Z,8.27
2023-04-20T01:04:41.702Z,8.27
2023-04-20T01:07:09.741Z,8.35
2023-04-20T01:09:39.380Z,8.40
2023-04-20T01:12:07.733Z,8.40
2023-04-20T01:14:36.097Z,8.41
2023-04-20T01:17:06.089Z,8.45
2023-04-20T01:19:34.255Z,8.45
2023-04-20T01:22:02.087Z,8.55
2023-04-20T01:24:31.395Z,8.40
2023-04-20T01:26:59.194Z,8.47
2023-04-20T01:29:27.451Z,8.44
2023-04-20T01:31:55.423Z,8.43
2023-04-20T01:34:23.368Z,8.39
2023-04-20T01:36:51.335Z,8.35
2023-04-20T01:39:19.583Z,8.29
2023-04-20T01:41:49.254Z,8.23
2023-04-20T01:44:17.448Z,8.17
2023-04-20T01:46:45.566Z,8.16
2023-04-20T01:49:13.477Z,8.15
2023-04-20T01:51:41.337Z,8.12
2023-04-20T01:54:09.236Z,8.08
2023-04-20T01:56:38.496Z,8.09
2023-04-20T01:59:07.869Z,8.07
2023-04-20T02:01:35.708Z,7.95
2023-04-20T02:04:03.635Z,8.00
2023-04-20T02:06:32.061Z,7.90
2023-04-20T02:09:00.940Z,7.71
2023-04-20T02:11:28.822Z,7.68
2023-04-20T02:13:56.762Z,7.56
2023-04-20T02:16:29.386Z,7.45
2023-04-20T02:19:03.734Z,7.39
2023-04-20T02:21:32.547Z,7.32
2023-04-20T02:24:12.580Z,7.26
2023-04-20T02:26:41.357Z,7.28
2023-04-20T02:29:09.304Z,7.33
2023-04-20T02:31:38.648Z,7.32
2023-04-20T02:34:13.654Z,7.43
2023-04-20T02:36:41.494Z,7.51
2023-04-20T02:39:16.044Z,7.62
2023-04-20T02:41:47.172Z,7.63
2023-04-20T02:44:15.061Z,7.64
2023-04-20T02:46:45.693Z,7.66
2023-04-20T02:49:13.735Z,7.73
2023-04-20T02:51:42.583Z,7.74
2023-04-20T02:54:10.665Z,7.76
2023-04-20T02:56:38.480Z,7.80
2023-04-20T02:59:07.421Z,7.84
2023-04-20T03:01:35.454Z,7.87
2023-04-20T03:04:05.559Z,7.97
2023-04-20T03:06:33.680Z,7.98
2023-04-20T03:09:01.633Z,8.03
2023-04-20T03:11:29.595Z,8.11
2023-04-20T03:13:59.965Z,8.12
2023-04-20T03:16:28.106Z,8.18
2023-04-20T03:18:56.530Z,8.16
2023-04-20T03:21:25.815Z,8.29
2023-04-20T03:23:53.786Z,8.34
2023-04-20T03:26:21.689Z,8.37
2023-04-20T03:28:51.085Z,8.24
2023-04-20T03:31:19.154Z,8.38
2023-04-20T03:33:47.211Z,8.30
2023-04-20T03:36:15.083Z,8.33
2023-04-20T03:38:44.540Z,8.23
2023-04-20T03:41:12.407Z,8.21
2023-04-20T03:43:41.323Z,8.23
2023-04-20T03:46:09.350Z,8.12
2023-04-20T03:48:37.372Z,8.26
2023-04-20T03:51:06.082Z,8.32
2023-04-20T03:53:34.258Z,8.38
2023-04-20T03:56:03.840Z,8.46
2023-04-20T03:58:31.750Z,8.47
2023-04-20T04:01:03.254Z,8.46
2023-04-20T04:03:32.399Z,8.43
2023-04-20T04:06:00.459Z,8.41
2023-04-20T04:08:30.558Z,8.41
2023-04-20T04:10:58.516Z,8.31
2023-04-20T04:13:28.041Z,8.26
2023-04-20T04:15:56.109Z,8.18
2023-04-20T04:18:24.129Z,8.20
2023-04-20T04:20:51.987Z,8.02
2023-04-20T04:23:20.114Z,8.06
2023-04-20T04:25:48.700Z,8.05
2023-04-20T04:28:17.118Z,8.09
2023-04-20T04:30:47.388Z,8.08
2023-04-20T04:33:15.539Z,8.10
2023-04-20T04:35:43.995Z,8.11
2023-04-20T04:38:13.041Z,8.11
2023-04-20T04:40:45.885Z,8.03
2023-04-20T04:43:13.837Z,7.98
2023-04-20T04:45:42.057Z,7.91
2023-04-20T04:48:12.256Z,7.85
2023-04-20T04:50:41.605Z,7.85
2023-04-20T04:53:09.615Z,7.78
2023-04-20T04:55:37.436Z,7.65
2023-04-20T04:58:05.617Z,7.51
2023-04-20T05:00:33.613Z,7.38
2023-04-20T05:03:01.654Z,7.26
2023-04-20T05:05:31.254Z,7.26
2023-04-20T05:07:59.317Z,7.27
2023-04-20T05:10:27.416Z,7.22
2023-04-20T05:12:55.494Z,6.99
2023-04-20T05:15:23.436Z,7.18
2023-04-20T05:17:52.047Z,7.11
2023-04-20T05:20:20.803Z,7.02
2023-04-20T05:22:50.041Z,6.82
2023-04-20T05:25:23.578Z,6.68
2023-04-20T05:27:51.551Z,6.56
2023-04-20T05:30:22.130Z,6.64
2023-04-20T05:32:51.471Z,6.55
2023-04-20T05:35:21.246Z,6.58
2023-04-20T05:37:51.695Z,6.50
2023-04-20T05:40:19.539Z,6.59
2023-04-20T05:42:47.479Z,6.57
2023-04-20T05:45:15.459Z,6.52
2023-04-20T05:47:54.122Z,6.51
2023-04-20T05:50:22.924Z,6.54
2023-04-20T05:52:52.417Z,6.42
2023-04-20T05:55:22.753Z,6.43
2023-04-20T05:57:52.553Z,6.28
2023-04-20T06:00:23.868Z,6.15
2023-04-20T06:02:56.184Z,6.14
2023-04-20T06:05:24.610Z,5.98
2023-04-20T06:07:54.153Z,5.91
2023-04-20T06:10:22.131Z,6.01
2023-04-20T06:12:52.802Z,6.01
2023-04-20T06:15:20.920Z,6.03
2023-04-20T06:17:50.820Z,5.85
2023-04-20T06:20:19.825Z,5.78
2023-04-20T06:22:47.989Z,5.88
2023-04-20T06:25:18.013Z,5.85
2023-04-20T06:27:46.802Z,5.97
2023-04-20T06:30:16.289Z,5.92
2023-04-20T06:32:46.490Z,5.96
2023-04-20T06:35:14.697Z,5.86
2023-04-20T06:37:43.776Z,5.78
2023-04-20T06:40:16.280Z,5.87
2023-04-20T06:42:56.594Z,5.99
2023-04-20T06:45:32.912Z,6.03
2023-04-20T06:48:30.811Z,6.04
2023-04-20T06:51:48.112Z,5.90
2023-04-20T06:54:39.958Z,5.98
2023-04-20T06:57:09.732Z,5.97
2023-04-20T06:59:40.492Z,5.95
2023-04-20T07:02:12.857Z,5.96
2023-04-20T07:04:44.085Z,5.81
2023-04-20T07:07:16.150Z,5.76
2023-04-20T07:09:46.976Z,5.65
2023-04-20T07:12:16.017Z,5.60
2023-04-20T07:14:46.172Z,5.57
2023-04-20T07:17:14.453Z,5.67
2023-04-20T07:19:43.516Z,5.59
2023-04-20T07:22:13.361Z,5.50
2023-04-20T07:24:41.804Z,5.34
2023-04-20T07:27:09.923Z,5.61
2023-04-20T07:29:43.477Z,5.47
2023-04-20T07:32:13.985Z,5.58
2023-04-20T07:34:42.648Z,5.98
2023-04-20T07:37:10.995Z,5.71
2023-04-20T07:39:40.319Z,5.78
2023-04-20T07:42:08.370Z,5.78
2023-04-20T07:44:36.797Z,5.98
2023-04-20T07:47:06.760Z,5.95
2023-04-20T07:49:46.523Z,5.79
2023-04-20T07:52:17.280Z,5.78
2023-04-20T07:54:46.723Z,6.08
2023-04-20T07:57:17.053Z,6.24
2023-04-20T07:59:48.026Z,6.06
2023-04-20T08:05:23.196Z,6.15
2023-04-20T08:16:35.222Z,6.73
2023-04-20T08:21:45.437Z,6.93
2023-04-20T08:27:24.235Z,7.05
2023-04-20T08:29:57.678Z,7.27
2023-04-20T08:32:27.179Z,7.16
2023-04-20T08:34:56.854Z,7.13
2023-04-20T08:37:25.604Z,7.08
2023-04-20T08:39:54.147Z,7.15
2023-04-20T08:42:28.279Z,6.95
2023-04-20T08:45:00.960Z,6.98
2023-04-20T08:47:29.715Z,6.78
2023-04-20T08:50:00.374Z,6.72
2023-04-20T08:52:28.960Z,6.96
2023-04-20T08:54:57.954Z,6.74
2023-04-20T08:57:41.012Z,6.84
2023-04-20T09:03:47.334Z,7.09
2023-04-20T09:07:10.488Z,7.38
2023-04-20T09:09:40.525Z,7.15
2023-04-20T09:12:10.422Z,7.35
2023-04-20T09:14:45.018Z,7.62
2023-04-20T09:17:16.724Z,7.85
2023-04-20T09:19:58.202Z,7.99
2023-04-20T09:22:37.187Z,7.76
2023-04-20T09:25:15.279Z,7.78
2023-04-20T09:31:47.158Z,7.54
2023-04-20T09:47:07.306Z,8.13
2023-04-20T09:52:57.851Z,7.77
2023-04-20T09:55:27.794Z,7.80
2023-04-20T09:57:59.774Z,7.75
2023-04-20T10:00:38.753Z,7.69
2023-04-20T10:03:10.854Z,7.63
2023-04-20T10:05:44.420Z,7.53
2023-04-20T10:08:17.189Z,7.68
2023-04-20T10:10:49.098Z,7.69
2023-04-20T10:13:22.120Z,7.65
2023-04-20T10:15:52.933Z,7.74
2023-04-20T10:28:10.075Z,8.01
2023-04-20T10:30:51.636Z,7.92
2023-04-20T10:33:23.238Z,7.93
2023-04-20T10:35:54.354Z,8.16
2023-04-20T10:41:42.923Z,8.06
2023-04-20T10:44:12.409Z,8.09
2023-04-20T10:46:42.876Z,8.17
2023-04-20T10:49:19.641Z,8.23
2023-04-20T10:51:57.926Z,8.37
2023-04-20T10:54:39.703Z,8.32
2023-04-20T10:57:32.762Z,8.29
2023-04-20T11:00:28.951Z,8.13
2023-04-20T11:03:17.565Z,8.04
2023-04-20T11:06:10.430Z,8.11
2023-04-20T11:08:56.610Z,7.95
2023-04-20T11:11:27.736Z,8.15
2023-04-20T11:14:08.699Z,7.98
2023-04-20T11:16:50.470Z,8.30
2023-04-20T11:19:28.053Z,8.43
2023-04-20T11:21:56.893Z,8.59
2023-04-20T11:24:29.165Z,8.85
2023-04-20T11:26:58.894Z,8.92
2023-04-20T11:29:32.756Z,9.16
2023-04-20T11:32:04.160Z,9.37
2023-04-20T11:34:40.718Z,9.01
2023-04-20T11:37:12.914Z,9.27
2023-04-20T11:39:42.735Z,9.43
2023-04-20T11:42:14.614Z,9.63
2023-04-20T11:44:45.375Z,10.54
2023-04-20T11:47:17.608Z,12.17
2023-04-20T11:49:49.205Z,11.69
2023-04-20T11:52:18.239Z,11.83
2023-04-20T11:54:47.110Z,11.45
2023-04-20T11:57:15.321Z,11.30
2023-04-20T11:59:47.978Z,11.11
2023-04-20T12:02:16.098Z,11.19
2023-04-20T12:04:44.361Z,10.83
2023-04-20T12:08:03.217Z,11.42
2023-04-20T12:10:31.245Z,12.54
2023-04-20T12:13:00.112Z,12.46
2023-04-20T12:15:28.609Z,12.52
2023-04-20T12:17:56.777Z,11.57
2023-04-20T12:20:40.544Z,11.13
2023-04-20T12:23:10.175Z,12.54
2023-04-20T12:25:38.811Z,13.03
2023-04-20T12:28:07.918Z,12.91
2023-04-20T12:30:36.372Z,12.19
2023-04-20T12:33:09.121Z,11.15
2023-04-20T12:35:42.885Z,11.18
2023-04-20T12:38:14.875Z,11.21
2023-04-20T12:40:43.236Z,10.55
2023-04-20T12:43:11.707Z,11.42
2023-04-20T12:45:41.117Z,11.66
2023-04-20T12:51:10.459Z,12.30
2023-04-20T12:53:40.801Z,13.47
2023-04-20T12:56:10.698Z,12.88
2023-04-20T12:58:39.020Z,13.44
2023-04-20T13:01:07.981Z,12.42
2023-04-20T13:03:36.891Z,13.07
2023-04-20T13:06:07.518Z,12.86
2023-04-20T13:08:42.461Z,12.18
2023-04-20T13:11:32.363Z,13.62
2023-04-20T13:14:31.922Z,14.14
2023-04-20T13:17:01.922Z,13.64
2023-04-20T13:19:30.792Z,14.12
2023-04-20T13:22:00.243Z,15.05
2023-04-20T13:24:29.703Z,14.54
2023-04-20T13:27:00.717Z,15.07
2023-04-20T13:29:29.018Z,13.84
2023-04-20T13:31:57.156Z,14.63
2023-04-20T13:34:27.370Z,15.04
2023-04-20T13:36:56.053Z,14.71
2023-04-20T13:39:27.988Z,14.13
2023-04-20T13:41:59.786Z,14.56
2023-04-20T13:44:53.339Z,15.16
2023-04-20T13:47:22.631Z,14.61
2023-04-20T13:49:50.735Z,14.80
2023-04-20T13:52:19.081Z,15.00
2023-04-20T13:54:47.072Z,16.13
2023-04-20T13:57:19.390Z,14.69
2023-04-20T14:00:09.838Z,13.83
2023-04-20T14:05:53.563Z,13.89
2023-04-20T14:08:23.393Z,14.21
2023-04-20T14:11:27.616Z,14.96
2023-04-20T14:13:56.971Z,14.83
2023-04-20T14:16:54.475Z,14.37
2023-04-20T14:19:23.621Z,12.66
2023-04-20T14:21:51.680Z,12.74
2023-04-20T14:24:20.264Z,12.37
2023-04-20T14:26:49.483Z,13.48
2023-04-20T14:29:20.424Z,13.78
2023-04-20T14:31:51.060Z,12.94
2023-04-20T14:34:19.439Z,13.05
2023-04-20T14:36:49.903Z,15.02
2023-04-20T14:39:20.633Z,15.37
2023-04-20T14:41:51.933Z,12.85
2023-04-20T14:44:23.039Z,12.15
2023-04-20T14:46:51.845Z,12.15
2023-04-20T14:49:20.884Z,12.12
2023-04-20T14:51:51.064Z,13.29
2023-04-20T14:54:29.071Z,13.52
2023-04-20T14:56:58.598Z,12.83
2023-04-20T14:59:41.576Z,12.92
2023-04-20T15:02:18.796Z,12.95
2023-04-20T15:04:52.948Z,12.14
2023-04-20T15:08:17.519Z,12.83
2023-04-20T15:10:56.709Z,13.33
2023-04-20T15:13:26.866Z,13.71
2023-04-20T15:15:57.565Z,14.32
2023-04-20T15:18:25.766Z,14.16
2023-04-20T15:20:54.545Z,13.52
2023-04-20T15:23:37.995Z,12.06
2023-04-20T15:26:08.083Z,11.87
2023-04-20T15:28:36.336Z,12.60
2023-04-20T15:31:10.764Z,13.14
2023-04-20T15:33:43.411Z,14.03
2023-04-20T15:36:21.308Z,14.70
2023-04-20T15:38:50.450Z,14.73
2023-04-20T15:41:18.737Z,14.90
2023-04-20T15:43:48.958Z,15.26
2023-04-20T15:46:24.618Z,14.88
2023-04-20T15:48:53.160Z,13.22
2023-04-20T15:51:21.264Z,13.07
2023-04-20T15:53:50.968Z,12.83
2023-04-20T15:56:22.774Z,12.86
2023-04-20T15:58:51.706Z,14.19
2023-04-20T16:01:22.762Z,13.45
2023-04-20T16:03:51.020Z,13.07
2023-04-20T16:06:20.947Z,12.77
2023-04-20T16:08:53.479Z,12.32
2023-04-20T16:11:21.859Z,12.54
2023-04-20T16:13:51.068Z,13.08
2023-04-20T16:16:19.776Z,13.71
2023-04-20T16:18:49.485Z,14.36
2023-04-20T16:21:18.656Z,14.83
2023-04-20T16:23:46.925Z,14.43
2023-04-20T16:26:16.270Z,14.02
2023-04-20T16:28:45.275Z,13.78
2023-04-20T16:31:13.322Z,13.21
2023-04-20T16:33:44.732Z,12.90
2023-04-20T16:36:16.346Z,12.49
2023-04-20T16:38:44.522Z,12.15
2023-04-20T16:41:12.667Z,11.91
2023-04-20T16:43:43.117Z,12.02
2023-04-20T16:46:13.684Z,12.05
2023-04-20T16:48:41.973Z,12.06
2023-04-20T16:51:10.041Z,12.43
2023-04-20T16:53:39.443Z,11.87
2023-04-20T16:56:11.308Z,12.15
2023-04-20T16:58:39.932Z,11.80
2023-04-20T17:01:09.569Z,11.55
2023-04-20T17:03:41.202Z,11.42
2023-04-20T17:06:14.167Z,11.30
2023-04-20T17:08:44.866Z,11.09
2023-04-20T17:11:13.914Z,11.03
2023-04-20T17:13:45.181Z,11.06
2023-04-20T17:16:13.249Z,11.10
2023-04-20T17:18:42.097Z,11.03
2023-04-20T17:21:13.990Z,10.96
2023-04-20T17:23:47.334Z,11.16
2023-04-20T17:26:17.072Z,11.10
2023-04-20T17:28:48.721Z,10.94
2023-04-20T17:31:23.589Z,10.70
2023-04-20T17:33:51.638Z,10.57
2023-04-20T17:36:19.653Z,10.60
2023-04-20T17:38:49.080Z,10.46
2023-04-20T17:41:18.139Z,10.38
2023-04-20T17:43:46.214Z,10.36
2023-04-20T17:46:15.357Z,10.26
2023-04-20T17:48:43.975Z,10.10
2023-04-20T17:51:16.995Z,10.13
2023-04-20T17:53:46.746Z,9.93
2023-04-20T17:56:17.652Z,9.85
2023-04-20T17:58:47.033Z,9.73
2023-04-20T18:01:20.455Z,9.87
2023-04-20T18:03:51.983Z,9.65
2023-04-20T18:06:20.476Z,9.88
2023-04-20T18:08:48.802Z,9.79
2023-04-20T18:11:18.474Z,9.65
2023-04-20T18:13:47.004Z,9.61
2023-04-20T18:16:15.671Z,9.51
2023-04-20T18:18:51.830Z,9.62
2023-04-20T18:21:24.391Z,9.48
2023-04-20T18:23:55.771Z,9.46
2023-04-20T18:26:25.696Z,9.25
2023-04-20T18:28:57.745Z,9.36
2023-04-20T18:31:30.445Z,9.15
2023-04-20T18:33:58.808Z,9.24
2023-04-20T18:36:28.544Z,9.15
2023-04-20T18:39:00.128Z,9.00
2023-04-20T18:41:32.443Z,9.05
2023-04-20T18:44:03.738Z,9.07
2023-04-20T18:46:32.603Z,9.06
2023-04-20T18:49:01.223Z,9.06
2023-04-20T18:51:43.683Z,8.96
2023-04-20T18:54:14.787Z,8.98
2023-04-20T18:56:46.476Z,8.86
2023-04-20T18:59:15.542Z,8.67
2023-04-20T19:01:43.936Z,8.70
2023-04-20T19:04:12.062Z,8.56
2023-04-20T19:06:40.095Z,8.55
2023-04-20T19:09:08.482Z,8.42
2023-04-20T19:11:36.728Z,8.39
2023-04-20T19:14:06.320Z,8.32
2023-04-20T19:16:35.246Z,8.34
2023-04-20T19:19:04.268Z,8.34
2023-04-20T19:21:38.874Z,8.33
2023-04-20T19:24:07.427Z,8.19
2023-04-20T19:26:36.831Z,8.29
2023-04-20T19:29:22.290Z,8.24
2023-04-20T19:31:50.407Z,8.31
2023-04-20T19:34:31.271Z,8.28
2023-04-20T19:37:02.399Z,8.32
2023-04-20T19:39:43.753Z,8.25
2023-04-20T19:42:18.912Z,8.37
2023-04-20T19:44:56.049Z,8.33
2023-04-20T19:47:25.456Z,8.19
2023-04-20T19:50:04.122Z,8.27
2023-04-20T19:55:17.571Z,8.25
2023-04-20T19:57:45.615Z,8.35
2023-04-20T20:00:15.720Z,8.22
2023-04-20T20:02:56.631Z,8.18
2023-04-20T20:05:26.193Z,8.17
2023-04-20T20:07:55.416Z,8.25
2023-04-20T20:10:23.786Z,8.21
2023-04-20T20:12:51.780Z,8.33
2023-04-20T20:15:23.425Z,8.44
2023-04-20T20:17:55.371Z,8.43
2023-04-20T20:20:24.534Z,8.24
2023-04-20T20:22:54.899Z,8.43
2023-04-20T20:28:42.945Z,8.33
2023-04-20T20:31:12.531Z,8.50
2023-04-20T20:33:42.885Z,8.46
2023-04-20T20:36:11.235Z,8.44
2023-04-20T20:38:40.738Z,8.55
2023-04-20T20:41:09.356Z,8.55
2023-04-20T20:43:37.709Z,8.49
2023-04-20T20:46:06.809Z,8.58
2023-04-20T20:48:36.290Z,8.50
2023-04-20T20:51:04.605Z,8.54
2023-04-20T20:53:32.653Z,8.64
2023-04-20T20:56:00.772Z,8.66
2023-04-20T20:58:29.914Z,8.55
2023-04-20T21:00:58.346Z,8.45
2023-04-20T21:03:28.711Z,8.63
2023-04-20T21:05:58.419Z,8.57
2023-04-20T21:08:29.985Z,8.73
2023-04-20T21:10:58.236Z,8.68
2023-04-20T21:13:26.452Z,8.59
2023-04-20T21:15:54.376Z,8.73
2023-04-20T21:18:35.887Z,8.54
2023-04-20T21:21:05.889Z,8.74
2023-04-20T21:23:35.119Z,8.63
2023-04-20T21:26:03.208Z,8.79
2023-04-20T21:28:37.177Z,8.68
2023-04-20T21:31:13.864Z,8.79
2023-04-20T21:33:42.090Z,8.75
2023-04-20T21:36:11.623Z,8.80
2023-04-20T21:38:39.998Z,8.61
2023-04-20T21:41:08.386Z,8.62
2023-04-20T21:43:38.816Z,8.41
2023-04-20T21:46:07.023Z,8.59
2023-04-20T21:48:35.142Z,8.69
2023-04-20T21:51:03.127Z,8.58
2023-04-20T21:53:34.658Z,8.86
2023-04-20T21:56:03.759Z,8.70
2023-04-20T21:58:33.274Z,8.81
2023-04-20T22:01:01.669Z,8.82
2023-04-20T22:03:34.594Z,8.79
2023-04-20T22:06:03.824Z,8.74
2023-04-20T22:08:32.052Z,8.56
2023-04-20T22:11:01.417Z,8.41
2023-04-20T22:13:33.978Z,8.38
2023-04-20T22:16:02.001Z,8.33
2023-04-20T22:18:30.692Z,8.30
2023-04-20T22:21:02.453Z,8.08
2023-04-20T22:23:34.461Z,8.03
2023-04-20T22:26:06.390Z,7.98
2023-04-20T22:28:42.199Z,8.07
2023-04-20T22:31:10.310Z,8.15
2023-04-20T22:33:43.593Z,8.28
2023-04-20T22:36:18.576Z,8.20
2023-04-20T22:38:46.668Z,8.37
2023-04-20T22:41:17.505Z,8.32
2023-04-20T22:43:45.899Z,8.32
2023-04-20T22:46:13.983Z,8.45
2023-04-20T22:48:42.624Z,8.37
2023-04-20T22:51:12.856Z,8.35
2023-04-20T22:53:41.936Z,8.47
2023-04-20T22:56:10.338Z,8.45
2023-04-20T22:58:42.701Z,8.57
2023-04-20T23:01:10.737Z,8.58
2023-04-20T23:03:38.791Z,8.43
2023-04-20T23:06:16.733Z,8.54
2023-04-20T23:08:45.537Z,8.41
2023-04-20T23:11:16.428Z,8.62
2023-04-20T23:13:46.859Z,8.49
2023-04-20T23:16:15.023Z,8.62
2023-04-20T23:18:43.970Z,8.54
2023-04-20T23:21:12.108Z,8.65
2023-04-20T23:23:40.185Z,8.61
2023-04-20T23:26:08.542Z,8.74
2023-04-20T23:28:36.675Z,8.68
2023-04-20T23:31:07.210Z,8.69
2023-04-20T23:33:35.401Z,8.55
2023-04-20T23:36:03.346Z,8.61
2023-04-20T23:38:31.646Z,8.69
2023-04-20T23:40:59.724Z,8.65
2023-04-20T23:43:47.003Z,8.80
2023-04-20T23:46:17.175Z,8.75
2023-04-20T23:48:51.605Z,8.76
2023-04-20T23:51:21.647Z,8.84
2023-04-20T23:53:50.809Z,8.83
2023-04-20T23:56:28.690Z,8.76
